Impacts METAR Board
IDs:

KCOM - Coleman Muni, TX, US

Updated at: 1300 UTC 14 Dec 2019
Potential Impact None Slight Moderate High
Time 14/01Z 14/02Z 14/03Z 14/04Z 14/05Z 14/06Z 14/07Z 14/08Z 14/09Z 14/10Z 14/11Z 14/12Z 14/13Z
Temp55 52 48 47 44 44 43 42 42 39 40 38 38
Dewpt39 39 39 38 37 37 37 36 36 35 34 34 34
Altim29.86 29.87 29.88 29.89 29.89 29.89 29.88 29.87 29.86 29.87 29.87 29.86 29.86
VIS10 10 10 10 10 10 10 10 10 10 10 10 10
CIG-- -- -- -- -- -- -- -- -- -- -- -- --
CoverCLRCLRCLRCLRCLRCLRCLRCLRCLRCLRCLRCLRCLR
FltCatVFRVFRVFRVFRVFRVFRVFRVFRVFRVFRVFRVFRVFR
WX--------------------------
WDir25000290260290270270036000
WSpd3 0 0 5 4 3 4 7 0 3 0 0
WGst-- -- -- -- -- -- -- -- -- -- -- -- --
Raw hourly METARs
KCOM 140055Z AUTO 25003KT 10SM CLR 13/04 A2986 RMK AO2 T01260039
KCOM 140155Z AUTO 00000KT 10SM CLR 11/04 A2987 RMK AO2 T01100037
KCOM 140255Z AUTO 00000KT 10SM CLR 09/04 A2988 RMK AO2 T00900037
KCOM 140355Z AUTO 29005KT 10SM CLR 08/03 A2989 RMK AO2 T00820032
KCOM 140455Z AUTO 26004KT 10SM CLR 07/03 A2989 RMK AO2 T00690028
KCOM 140555Z AUTO 29003KT 10SM CLR 07/03 A2989 RMK AO2 T00670029 10165 20059 402120059
KCOM 140655Z AUTO 27004KT 10SM CLR 06/03 A2988 RMK AO2 T00630025
KCOM 140755Z AUTO 27007KT 10SM CLR 06/02 A2987 RMK AO2 T00580021
KCOM 140855Z AUTO 00000KT 10SM CLR 06/02 A2986 RMK AO2 T00560020
KCOM 140955Z AUTO 36003KT 10SM CLR 04/02 A2987 RMK AO2 T00410016
KCOM 141055Z AUTO 10SM CLR 04/01 A2987 RMK AO2 T00430013
KCOM 141155Z AUTO 00000KT 10SM CLR 04/01 A2986 RMK AO2 T00360011 10070 20036
KCOM 141255Z AUTO 00000KT 10SM CLR 03/01 A2986 RMK AO2 T00340011



Page loaded:  13:48 UTC  |   05:48 AM Pacific  |   06:48 AM Mountain  |   07:48 AM Central  |   08:48 AM Eastern

 

ADVISORIES

FORECASTS

FORECASTS

OBSERVATIONS

USER TOOLS

ABOUT US